Time;durP1;ratioP1;P1;durP2;ratioP2;P2;SDS_P1;SDS_P2;PMS_P1;PMS_P2;Temp;Humidity;BMP_temperature;BMP_pressure;BME280_temperature;BME280_humidity;BME280_pressure;Samples;Min_cycle;Max_cycle;Signal;HPM_P1;HPM_P2
2022/05/12 00:01:02;;;;;;;2.00;1.57;;;;;17.50;100684.00;;;;4948336;29;20356;-71
2022/05/12 00:03:50;;;;;;;2.70;1.77;;;;;17.40;100691.00;;;;4940976;29;20232;-74
2022/05/12 00:06:36;;;;;;;2.87;1.57;;;;;17.30;100694.00;;;;4940368;29;20220;-72
2022/05/12 00:09:23;;;;;;;3.17;1.70;;;;;17.10;100701.00;;;;4946526;29;20235;-73
2022/05/12 00:12:10;;;;;;;3.00;1.70;;;;;17.20;100686.00;;;;4947545;29;20212;-72
2022/05/12 00:14:57;;;;;;;3.63;1.70;;;;;17.10;100719.00;;;;4946381;29;20336;-73
2022/05/12 00:17:44;;;;;;;1.60;1.40;;;;;17.20;100716.00;;;;4942685;29;20236;-70
2022/05/12 00:20:33;;;;;;;1.90;1.70;;;;;17.00;100718.00;;;;4941241;29;20224;-72
2022/05/12 00:23:22;;;;;;;2.40;1.67;;;;;17.00;100727.00;;;;4944874;29;20216;-70
2022/05/12 00:26:08;;;;;;;3.80;1.70;;;;;17.00;100733.00;;;;4944471;29;20236;-69
2022/05/12 00:28:56;;;;;;;4.93;1.90;;;;;17.10;100743.00;;;;4945187;29;20276;-72
2022/05/12 00:31:45;;;;;;;3.83;1.70;;;;;17.00;100745.00;;;;4940553;29;20624;-72
2022/05/12 00:34:32;;;;;;;3.33;1.70;;;;;16.80;100755.00;;;;4947503;29;20737;-72
2022/05/12 00:37:20;;;;;;;2.07;1.70;;;;;16.80;100752.00;;;;4945271;29;20216;-72
2022/05/12 00:40:08;;;;;;;2.00;1.50;;;;;16.80;100767.00;;;;4945649;29;20271;-71
2022/05/12 00:42:56;;;;;;;3.57;1.70;;;;;16.60;100771.00;;;;4941780;29;20227;-71
2022/05/12 00:45:43;;;;;;;3.40;1.90;;;;;16.50;100780.00;;;;4948166;29;20232;-73
2022/05/12 00:48:29;;;;;;;4.10;2.00;;;;;16.50;100780.00;;;;4947871;29;20224;-72
2022/05/12 00:51:18;;;;;;;4.60;1.80;;;;;16.50;100761.00;;;;4940966;29;20308;-72
2022/05/12 00:54:11;;;;;;;5.63;1.80;;;;;16.60;100788.00;;;;4940555;29;20224;-71
2022/05/12 00:57:00;;;;;;;2.30;1.60;;;;;16.50;100783.00;;;;4942455;29;20811;-71
2022/05/12 00:59:46;;;;;;;3.63;1.47;;;;;16.30;100795.00;;;;4948477;29;20212;-71
2022/05/12 01:02:34;;;;;;;4.10;2.03;;;;;16.30;100793.00;;;;4947785;29;20211;-72
2022/05/12 01:05:22;;;;;;;4.50;1.70;;;;;16.40;100798.00;;;;4947946;29;20250;-71
2022/05/12 01:08:10;;;;;;;2.37;1.70;;;;;16.20;100802.00;;;;4948369;29;20236;-72
2022/05/12 01:11:01;;;;;;;4.50;1.70;;;;;16.20;100809.00;;;;4941614;29;20267;-72
2022/05/12 01:13:52;;;;;;;3.30;1.50;;;;;16.20;100815.00;;;;4940338;29;20362;-71
2022/05/12 01:16:43;;;;;;;3.70;1.90;;;;;16.10;100827.00;;;;4947584;28;20647;-72
2022/05/12 01:19:31;;;;;;;3.03;2.00;;;;;16.00;100820.00;;;;4947722;29;20266;-71
2022/05/12 01:22:34;;;;;;;4.03;2.07;;;;;15.90;100838.00;;;;4948141;29;20725;-72
2022/05/12 01:25:24;;;;;;;3.50;1.63;;;;;15.80;100834.00;;;;4937072;29;20237;-73
2022/05/12 01:28:10;;;;;;;2.50;1.50;;;;;15.70;100832.00;;;;4941652;29;20841;-71
2022/05/12 01:30:58;;;;;;;3.03;1.60;;;;;15.60;100836.00;;;;4943857;29;20319;-71
2022/05/12 01:33:45;;;;;;;5.27;1.70;;;;;15.60;100846.00;;;;4946986;29;20809;-71
2022/05/12 01:36:32;;;;;;;4.23;1.40;;;;;15.60;100847.00;;;;4946770;29;21010;-70
2022/05/12 01:39:18;;;;;;;6.43;1.80;;;;;15.60;100859.00;;;;4948101;29;20216;-71
2022/05/12 01:42:08;;;;;;;2.30;1.50;;;;;15.60;100861.00;;;;4948056;29;20213;-70
2022/05/12 01:44:54;;;;;;;2.60;1.60;;;;;15.40;100875.00;;;;4948326;29;20229;-72
2022/05/12 01:47:42;;;;;;;4.00;1.60;;;;;15.10;100868.00;;;;4947847;29;20221;-71
2022/05/12 01:50:28;;;;;;;1.87;1.50;;;;;15.30;100871.00;;;;4947464;29;20271;-70
2022/05/12 01:53:17;;;;;;;4.97;1.50;;;;;15.20;100875.00;;;;4947549;29;20208;-70
2022/05/12 01:56:05;;;;;;;2.30;1.40;;;;;15.20;100875.00;;;;4942428;29;20211;-72
2022/05/12 01:58:53;;;;;;;2.87;1.60;;;;;15.00;100899.00;;;;4940769;29;20271;-71
2022/05/12 02:01:39;;;;;;;2.77;1.40;;;;;15.10;100880.00;;;;4947830;29;20310;-71
2022/05/12 02:04:26;;;;;;;4.00;1.60;;;;;14.90;100874.00;;;;4947476;29;20597;-72
2022/05/12 02:07:12;;;;;;;1.90;1.40;;;;;14.80;100891.00;;;;4947834;29;20217;-71
2022/05/12 02:09:58;;;;;;;2.97;1.47;;;;;14.90;100894.00;;;;4947752;29;20232;-71
2022/05/12 02:12:44;;;;;;;1.87;1.30;;;;;14.70;100900.00;;;;4945025;29;20216;-72
2022/05/12 02:15:32;;;;;;;3.03;1.63;;;;;14.70;100897.00;;;;4947219;29;20251;-71
2022/05/12 02:18:21;;;;;;;3.70;1.50;;;;;14.60;100917.00;;;;4947698;29;20220;-71
2022/05/12 02:21:07;;;;;;;2.40;1.57;;;;;14.60;100915.00;;;;4944529;29;21024;-70
2022/05/12 02:23:53;;;;;;;2.33;1.40;;;;;14.30;100920.00;;;;4940301;29;20321;-68
2022/05/12 02:26:40;;;;;;;1.97;1.20;;;;;14.40;100927.00;;;;4938778;29;20217;-69
2022/05/12 02:29:26;;;;;;;1.43;1.33;;;;;14.30;100927.00;;;;4947214;29;20231;-69
2022/05/12 02:32:16;;;;;;;3.17;1.27;;;;;14.20;100932.00;;;;4950529;29;20705;-70
2022/05/12 02:35:03;;;;;;;1.63;1.30;;;;;14.00;100930.00;;;;4944872;29;20365;-70
2022/05/12 02:37:49;;;;;;;1.60;1.37;;;;;13.90;100935.00;;;;4943105;29;20208;-71
2022/05/12 02:40:36;;;;;;;1.57;1.20;;;;;13.90;100945.00;;;;4950741;29;20223;-71
2022/05/12 02:43:25;;;;;;;1.67;1.33;;;;;13.70;100953.00;;;;4950778;29;20216;-69
2022/05/12 02:46:14;;;;;;;1.70;1.20;;;;;13.60;100953.00;;;;4950868;29;20214;-69
2022/05/12 02:49:02;;;;;;;1.57;1.10;;;;;13.60;100953.00;;;;4950936;29;20249;-72
2022/05/12 02:51:48;;;;;;;1.77;1.30;;;;;13.70;100967.00;;;;4950846;29;20688;-70
2022/05/12 02:54:35;;;;;;;1.47;1.17;;;;;13.50;100969.00;;;;4950308;29;20325;-70
2022/05/12 02:57:21;;;;;;;2.80;1.20;;;;;13.50;100966.00;;;;4950610;29;20215;-70
2022/05/12 03:00:11;;;;;;;2.00;1.30;;;;;13.40;100973.00;;;;4944957;29;20813;-70
2022/05/12 03:02:57;;;;;;;2.20;1.30;;;;;13.30;100971.00;;;;4950205;29;20555;-70
2022/05/12 03:05:45;;;;;;;1.00;1.00;;;;;13.30;100967.00;;;;4950169;29;20228;-70
2022/05/12 03:08:31;;;;;;;2.10;1.33;;;;;13.20;100976.00;;;;4950097;29;20208;-70
2022/05/12 03:11:17;;;;;;;1.57;1.27;;;;;13.20;100971.00;;;;4950034;29;20232;-68
2022/05/12 03:14:04;;;;;;;2.80;1.67;;;;;13.30;100977.00;;;;4943671;29;20309;-70
2022/05/12 03:16:53;;;;;;;2.40;1.30;;;;;13.30;100981.00;;;;4949972;29;20233;-70
2022/05/12 03:19:39;;;;;;;1.57;1.30;;;;;13.20;100988.00;;;;4949905;29;20220;-70
2022/05/12 03:22:27;;;;;;;1.50;1.17;;;;;13.00;100987.00;;;;4949740;29;20291;-71
2022/05/12 03:25:14;;;;;;;2.63;1.57;;;;;13.00;100998.00;;;;4949419;29;20251;-69
2022/05/12 03:28:00;;;;;;;2.90;1.63;;;;;13.00;100997.00;;;;4940865;29;20212;-69
2022/05/12 03:30:47;;;;;;;2.50;1.33;;;;;12.90;101003.00;;;;4949365;29;21131;-72
2022/05/12 03:33:34;;;;;;;4.43;1.60;;;;;12.90;101011.00;;;;4949339;29;20275;-69
2022/05/12 03:36:21;;;;;;;1.47;1.37;;;;;12.90;101008.00;;;;4950008;29;20208;-71
2022/05/12 03:39:09;;;;;;;1.90;1.40;;;;;12.90;101019.00;;;;4949982;28;20211;-70
2022/05/12 03:41:55;;;;;;;3.17;1.47;;;;;12.90;100989.00;;;;4942259;29;20220;-71
2022/05/12 03:44:47;;;;;;;2.57;1.30;;;;;12.90;101019.00;;;;4949502;29;20586;-70
2022/05/12 03:47:36;;;;;;;1.40;1.30;;;;;12.80;101019.00;;;;4949693;29;20235;-69
2022/05/12 03:50:25;;;;;;;1.37;1.20;;;;;12.80;101022.00;;;;4949452;29;20302;-71
2022/05/12 03:53:12;;;;;;;2.50;1.47;;;;;12.80;101019.00;;;;4941219;29;20535;-70
2022/05/12 03:56:00;;;;;;;2.97;1.63;;;;;12.70;101013.00;;;;4937099;29;20220;-68
2022/05/12 03:58:47;;;;;;;2.63;1.60;;;;;12.80;101022.00;;;;4944984;29;20216;-69
2022/05/12 04:01:34;;;;;;;3.27;1.43;;;;;12.70;101028.00;;;;4946813;29;20260;-70
2022/05/12 04:04:20;;;;;;;3.20;1.40;;;;;12.80;101032.00;;;;4949081;29;20249;-69
2022/05/12 04:07:06;;;;;;;2.97;1.70;;;;;12.70;101042.00;;;;4949458;29;20207;-70
2022/05/12 04:09:53;;;;;;;5.30;2.47;;;;;12.70;101059.00;;;;4947268;29;21003;-69
2022/05/12 04:12:41;;;;;;;3.50;1.67;;;;;12.70;101053.00;;;;4943766;29;20209;-70
2022/05/12 04:15:27;;;;;;;3.23;1.60;;;;;12.80;101061.00;;;;4949187;29;20293;-70
2022/05/12 04:18:13;;;;;;;2.70;1.47;;;;;12.80;101067.00;;;;4942938;29;20276;-70
2022/05/12 04:20:59;;;;;;;3.20;1.67;;;;;12.80;101071.00;;;;4947168;29;20220;-71
2022/05/12 04:23:46;;;;;;;2.27;1.30;;;;;12.90;101081.00;;;;4948431;29;20207;-69
2022/05/12 04:26:33;;;;;;;1.97;1.50;;;;;13.00;101076.00;;;;4948049;29;20256;-69
2022/05/12 04:29:20;;;;;;;2.80;1.60;;;;;13.10;101086.00;;;;4943914;29;20226;-69
2022/05/12 04:32:07;;;;;;;5.13;1.60;;;;;13.20;101088.00;;;;4945453;29;20248;-70
2022/05/12 04:35:11;;;;;;;3.50;1.60;;;;;13.40;101096.00;;;;4946742;29;20232;-70
2022/05/12 04:37:59;;;;;;;3.33;1.50;;;;;13.40;101105.00;;;;4947676;29;20274;-69
2022/05/12 04:40:45;;;;;;;3.03;2.00;;;;;13.40;101101.00;;;;4947926;29;20274;-70
2022/05/12 04:43:32;;;;;;;5.00;1.63;;;;;13.60;101087.00;;;;4947504;29;20207;-70
2022/05/12 04:46:19;;;;;;;1.77;1.43;;;;;13.60;101096.00;;;;4946461;29;20340;-69
2022/05/12 04:49:06;;;;;;;4.77;1.70;;;;;13.70;101111.00;;;;4942060;29;20207;-72
2022/05/12 04:51:56;;;;;;;3.50;2.23;;;;;13.80;101118.00;;;;4945292;28;20228;-70
2022/05/12 04:54:42;;;;;;;3.60;2.00;;;;;13.70;101114.00;;;;4948127;29;20267;-71
2022/05/12 04:57:34;;;;;;;2.37;1.70;;;;;13.70;101111.00;;;;4948374;29;20224;-71
2022/05/12 05:00:24;;;;;;;4.13;2.00;;;;;13.70;101125.00;;;;4948610;29;20219;-70
2022/05/12 05:03:12;;;;;;;3.30;1.70;;;;;13.70;101119.00;;;;4941972;29;20283;-70
2022/05/12 05:06:04;;;;;;;3.60;1.90;;;;;13.70;101126.00;;;;4941337;29;20780;-71
2022/05/12 05:08:50;;;;;;;1.93;1.73;;;;;13.70;101139.00;;;;4948361;29;20288;-71
2022/05/12 05:11:37;;;;;;;3.43;1.67;;;;;13.80;101137.00;;;;4947783;29;20303;-71
2022/05/12 05:14:24;;;;;;;3.33;1.73;;;;;13.70;101147.00;;;;4944463;29;20240;-71
2022/05/12 05:17:10;;;;;;;4.10;2.10;;;;;13.90;101142.00;;;;4941931;29;20566;-72
2022/05/12 05:19:58;;;;;;;5.33;1.80;;;;;14.00;101143.00;;;;4948256;29;20221;-71
2022/05/12 05:22:45;;;;;;;5.00;1.97;;;;;14.10;101161.00;;;;4947785;29;20256;-71
2022/05/12 05:25:32;;;;;;;2.83;1.80;;;;;14.30;101162.00;;;;4947438;29;20228;-73
2022/05/12 05:28:18;;;;;;;8.27;2.50;;;;;14.50;101166.00;;;;4945333;29;21165;-69
2022/05/12 05:31:05;;;;;;;5.30;2.53;;;;;14.60;101170.00;;;;4948315;29;20296;-69
2022/05/12 05:33:51;;;;;;;4.60;2.30;;;;;14.70;101167.00;;;;4947583;29;20263;-69
2022/05/12 05:36:42;;;;;;;5.33;2.57;;;;;14.60;101165.00;;;;4947786;29;20219;-69
2022/05/12 05:39:29;;;;;;;5.13;2.30;;;;;14.80;101166.00;;;;4947949;29;20212;-68
2022/05/12 05:42:18;;;;;;;3.40;2.40;;;;;14.70;101171.00;;;;4942275;29;20315;-69
2022/05/12 05:45:10;;;;;;;3.30;2.50;;;;;14.70;101183.00;;;;4948145;29;20262;-71
2022/05/12 05:48:01;;;;;;;6.67;2.83;;;;;14.70;101191.00;;;;4948069;29;20216;-72
2022/05/12 05:53:54;;;;;;;4.00;2.90;;;;;14.70;101183.00;;;;4946935;29;20223;-69
2022/05/12 05:56:40;;;;;;;5.37;3.03;;;;;14.80;101185.00;;;;4946661;29;20204;-70
2022/05/12 05:59:26;;;;;;;6.70;2.93;;;;;14.90;101179.00;;;;4947131;29;20212;-70
2022/05/12 06:02:13;;;;;;;3.37;2.63;;;;;14.80;101197.00;;;;4945749;28;20224;-69
2022/05/12 06:04:59;;;;;;;5.60;2.57;;;;;14.90;101201.00;;;;4950411;29;20239;-69
2022/05/12 06:07:46;;;;;;;4.57;3.00;;;;;14.90;101197.00;;;;4950853;29;20216;-68
2022/05/12 06:10:33;;;;;;;4.97;3.20;;;;;14.90;101190.00;;;;4950150;29;20217;-68
2022/05/12 06:13:20;;;;;;;4.97;3.13;;;;;15.10;101201.00;;;;4947643;29;20308;-70
2022/05/12 06:16:06;;;;;;;5.40;2.70;;;;;15.10;101191.00;;;;4944610;29;20212;-70
2022/05/12 06:18:53;;;;;;;3.03;2.30;;;;;15.10;101189.00;;;;4950491;29;20238;-70
2022/05/12 06:21:39;;;;;;;6.63;2.73;;;;;15.30;101209.00;;;;4951390;29;20267;-71
2022/05/12 06:24:26;;;;;;;3.23;2.50;;;;;15.30;101216.00;;;;4951372;29;20236;-71
2022/05/12 06:27:13;;;;;;;8.57;2.90;;;;;15.40;101215.00;;;;4951566;29;20215;-71
2022/05/12 06:29:59;;;;;;;5.00;2.87;;;;;15.30;101217.00;;;;4951677;29;20204;-68
2022/05/12 06:32:46;;;;;;;5.10;3.00;;;;;15.50;101226.00;;;;4950885;29;20315;-70
2022/05/12 06:35:33;;;;;;;6.57;2.43;;;;;15.60;101235.00;;;;4951826;29;20246;-70
2022/05/12 06:38:19;;;;;;;7.20;2.80;;;;;15.50;101237.00;;;;4951279;29;20304;-70
2022/05/12 06:41:06;;;;;;;8.03;4.23;;;;;15.60;101236.00;;;;4943664;29;20290;-70
2022/05/12 06:43:54;;;;;;;6.10;3.17;;;;;15.80;101243.00;;;;4950872;29;20237;-69
2022/05/12 06:46:41;;;;;;;6.17;2.63;;;;;15.80;101239.00;;;;4951251;29;20212;-69
2022/05/12 06:49:28;;;;;;;3.30;2.43;;;;;15.90;101246.00;;;;4951219;29;20263;-68
2022/05/12 06:52:14;;;;;;;7.87;2.70;;;;;15.90;101246.00;;;;4944448;29;20404;-69
2022/05/12 06:55:00;;;;;;;5.73;2.90;;;;;15.80;101245.00;;;;4950949;29;20588;-70
2022/05/12 06:57:47;;;;;;;5.10;2.50;;;;;15.90;101247.00;;;;4949654;29;20213;-69
2022/05/12 07:00:35;;;;;;;6.70;2.70;;;;;16.00;101262.00;;;;4946638;29;20687;-71
2022/05/12 07:03:21;;;;;;;6.43;3.53;;;;;16.10;101259.00;;;;4949954;29;20219;-70
2022/05/12 07:06:08;;;;;;;4.33;2.70;;;;;16.10;101262.00;;;;4949302;29;20224;-71
2022/05/12 07:08:54;;;;;;;4.07;2.73;;;;;16.20;101260.00;;;;4948312;29;20200;-69
2022/05/12 07:11:41;;;;;;;3.53;2.57;;;;;16.30;101254.00;;;;4947939;29;20881;-70
2022/05/12 07:14:27;;;;;;;5.30;2.83;;;;;16.40;101263.00;;;;4948039;28;20237;-70
2022/05/12 07:17:19;;;;;;;5.47;3.27;;;;;16.50;101268.00;;;;4947192;29;20220;-71
2022/05/12 07:29:21;;;;;;;6.07;3.00;;;;;16.90;101269.00;;;;4950141;29;20324;-69
2022/05/12 07:32:08;;;;;;;4.60;3.30;;;;;17.30;101272.00;;;;4944833;29;20252;-69
2022/05/12 07:34:56;;;;;;;8.63;3.80;;;;;17.20;101276.00;;;;4950176;29;20311;-69
2022/05/12 07:37:42;;;;;;;6.97;3.60;;;;;17.30;101246.00;;;;4948926;29;20639;-70
2022/05/12 07:40:29;;;;;;;5.93;3.40;;;;;17.50;101277.00;;;;4950055;29;20785;-69
2022/05/12 07:43:15;;;;;;;6.87;3.23;;;;;17.50;101294.00;;;;4943490;29;20372;-70
2022/05/12 07:46:01;;;;;;;5.60;3.33;;;;;17.40;101286.00;;;;4949212;29;20221;-70
2022/05/12 07:48:48;;;;;;;9.30;3.73;;;;;17.70;101281.00;;;;4949553;29;20228;-70
2022/05/12 07:51:35;;;;;;;8.97;3.73;;;;;17.60;101290.00;;;;4949815;29;20220;-69
2022/05/12 07:54:21;;;;;;;7.73;3.83;;;;;17.60;101289.00;;;;4943455;29;20746;-71
2022/05/12 07:57:08;;;;;;;7.07;3.87;;;;;17.70;101290.00;;;;4941481;29;20299;-70
2022/05/12 08:00:00;;;;;;;5.67;3.73;;;;;17.50;101284.00;;;;4947258;29;20762;-69
2022/05/12 08:02:47;;;;;;;5.57;3.73;;;;;17.60;101286.00;;;;4945841;29;20216;-69
2022/05/12 08:05:34;;;;;;;7.50;3.90;;;;;17.50;101294.00;;;;4947930;29;20295;-69
2022/05/12 08:08:22;;;;;;;6.97;3.97;;;;;17.30;101293.00;;;;4948392;29;20211;-68
2022/05/12 08:11:10;;;;;;;5.60;3.80;;;;;17.70;101299.00;;;;4948871;29;20264;-69
2022/05/12 08:13:56;;;;;;;9.37;4.40;;;;;18.00;101289.00;;;;4945574;29;20348;-69
2022/05/12 08:16:43;;;;;;;5.23;3.57;;;;;18.00;101292.00;;;;4948556;29;20736;-70
2022/05/12 08:19:29;;;;;;;6.80;3.90;;;;;18.40;101304.00;;;;4947193;29;20573;-70
2022/05/12 08:22:15;;;;;;;4.97;3.30;;;;;18.60;101293.00;;;;4942662;29;20211;-70
2022/05/12 08:25:04;;;;;;;8.57;3.43;;;;;18.70;101300.00;;;;4947448;29;20780;-69
2022/05/12 08:27:50;;;;;;;5.93;3.40;;;;;18.80;101312.00;;;;4949057;29;20276;-70
2022/05/12 08:30:37;;;;;;;6.23;3.00;;;;;19.00;101306.00;;;;4949586;29;20216;-70
2022/05/12 08:33:24;;;;;;;6.00;2.90;;;;;19.20;101304.00;;;;4942820;29;20718;-71
2022/05/12 08:36:11;;;;;;;5.87;3.30;;;;;19.30;101310.00;;;;4941758;29;20203;-70
2022/05/12 08:38:57;;;;;;;6.37;2.60;;;;;19.20;101309.00;;;;4948782;29;20220;-70
2022/05/12 08:41:50;;;;;;;4.63;3.03;;;;;18.90;101314.00;;;;4949352;29;20212;-70
2022/05/12 08:44:39;;;;;;;5.10;2.80;;;;;19.20;101317.00;;;;4948709;29;20752;-69
2022/05/12 08:47:28;;;;;;;3.43;2.63;;;;;18.90;101317.00;;;;4943124;29;20211;-70
2022/05/12 08:50:21;;;;;;;9.43;2.50;;;;;18.70;101311.00;;;;4948822;29;20227;-71
2022/05/12 08:53:12;;;;;;;5.87;2.80;;;;;18.50;101318.00;;;;4946423;29;20220;-69
2022/05/12 08:55:59;;;;;;;7.03;2.70;;;;;18.30;101325.00;;;;4946888;29;20228;-68
2022/05/12 08:58:49;;;;;;;4.40;2.23;;;;;18.10;101324.00;;;;4947791;29;20204;-66
2022/05/12 09:01:42;;;;;;;6.10;3.23;;;;;18.20;101331.00;;;;4941824;29;20345;-68
2022/05/12 09:04:48;;;;;;;5.43;2.87;;;;;18.00;101321.00;;;;4943073;29;20247;-69
2022/05/12 09:07:40;;;;;;;4.67;2.80;;;;;18.10;101317.00;;;;4944035;29;20311;-72
2022/05/12 09:10:39;;;;;;;3.67;2.93;;;;;18.00;101321.00;;;;4945731;29;20208;-69
2022/05/12 09:13:30;;;;;;;8.67;4.93;;;;;18.00;101320.00;;;;4945538;29;20582;-71
2022/05/12 09:16:22;;;;;;;6.57;3.17;;;;;18.20;101334.00;;;;4944621;29;20272;-68
2022/05/12 09:19:14;;;;;;;6.03;3.00;;;;;18.50;101327.00;;;;4948475;29;20752;-71
2022/05/12 09:22:02;;;;;;;5.63;2.97;;;;;18.30;101321.00;;;;4948483;29;20212;-70
2022/05/12 09:24:49;;;;;;;4.07;2.83;;;;;18.80;101329.00;;;;4945519;29;20240;-67
2022/05/12 09:27:37;;;;;;;3.93;3.33;;;;;19.20;101325.00;;;;4948778;29;20889;-71
2022/05/12 09:30:32;;;;;;;5.77;3.07;;;;;19.60;101323.00;;;;4941910;29;20216;-70
2022/05/12 09:33:26;;;;;;;6.23;2.90;;;;;20.00;101321.00;;;;4940924;29;20251;-70
2022/05/12 09:36:16;;;;;;;3.03;2.43;;;;;20.10;101337.00;;;;4940381;29;20300;-68
2022/05/12 09:39:03;;;;;;;2.93;2.40;;;;;20.40;101337.00;;;;4951279;28;20216;-69
2022/05/12 09:41:50;;;;;;;5.43;2.50;;;;;20.30;101340.00;;;;4951628;29;20224;-69
2022/05/12 09:44:36;;;;;;;6.07;2.50;;;;;19.90;101334.00;;;;4951757;29;20248;-71
2022/05/12 09:47:23;;;;;;;5.83;2.60;;;;;19.90;101341.00;;;;4951973;29;20264;-69
2022/05/12 09:50:17;;;;;;;5.77;3.10;;;;;20.40;101331.00;;;;4951716;29;20775;-67
2022/05/12 09:53:06;;;;;;;5.23;3.20;;;;;20.40;101321.00;;;;4950464;29;20780;-69
2022/05/12 09:56:02;;;;;;;4.77;2.90;;;;;20.20;101322.00;;;;4948198;29;20583;-68
2022/05/12 09:58:57;;;;;;;4.63;3.37;;;;;20.00;101309.00;;;;4950570;29;20260;-69
2022/05/12 10:01:52;;;;;;;3.83;2.67;;;;;19.70;101328.00;;;;4948601;29;20236;-68
2022/05/12 10:08:02;;;;;;;4.97;2.93;;;;;20.00;101318.00;;;;4949812;29;20699;-69
2022/05/12 10:10:53;;;;;;;6.90;3.17;;;;;19.80;101318.00;;;;4948342;29;20216;-69
2022/05/12 10:13:44;;;;;;;3.90;2.93;;;;;20.10;101321.00;;;;4941050;29;20776;-68
2022/05/12 10:16:34;;;;;;;3.83;3.00;;;;;20.40;101324.00;;;;4946252;29;20337;-69
2022/05/12 10:19:22;;;;;;;3.60;2.70;;;;;20.50;101316.00;;;;4951646;29;20220;-69
2022/05/12 10:22:14;;;;;;;3.60;2.63;;;;;20.80;101311.00;;;;4951191;29;20333;-68
2022/05/12 10:25:12;;;;;;;4.60;3.20;;;;;21.00;101307.00;;;;4947595;29;20233;-69
2022/05/12 10:28:03;;;;;;;6.87;2.73;;;;;21.60;101317.00;;;;4951352;29;20906;-69
2022/05/12 10:30:56;;;;;;;5.60;2.83;;;;;21.50;101318.00;;;;4951546;29;20238;-69
2022/05/12 10:33:52;;;;;;;5.60;2.93;;;;;21.40;101314.00;;;;4946539;29;20607;-68
2022/05/12 10:36:50;;;;;;;4.33;2.50;;;;;21.60;101311.00;;;;4946360;29;20209;-69
2022/05/12 10:39:47;;;;;;;4.40;3.00;;;;;21.70;101309.00;;;;4949627;29;20302;-69
2022/05/12 10:42:50;;;;;;;5.03;2.80;;;;;21.90;101312.00;;;;4945768;29;20214;-70
2022/05/12 10:45:42;;;;;;;4.60;2.90;;;;;21.80;101306.00;;;;4945554;29;20246;-69
2022/05/12 10:48:44;;;;;;;5.27;2.90;;;;;21.90;101306.00;;;;4949073;28;20273;-69
2022/05/12 10:51:41;;;;;;;4.83;2.70;;;;;22.20;101304.00;;;;4946899;29;20652;-68
2022/05/12 10:54:34;;;;;;;5.30;3.00;;;;;21.70;101315.00;;;;4949263;29;20239;-67
2022/05/12 10:57:31;;;;;;;4.37;3.40;;;;;21.60;101322.00;;;;4950260;29;20234;-69
2022/05/12 11:00:50;;;;;;;4.63;3.57;;;;;20.90;101328.00;;;;4943344;29;20287;-70
2022/05/12 11:03:41;;;;;;;5.73;3.73;;;;;20.30;101314.00;;;;4945410;29;20689;-69
2022/05/12 11:06:31;;;;;;;5.90;4.07;;;;;20.20;101324.00;;;;4944606;29;20243;-68
2022/05/12 11:09:23;;;;;;;6.67;4.33;;;;;20.30;101308.00;;;;4951031;29;20361;-68
2022/05/12 11:12:19;;;;;;;7.73;4.40;;;;;21.00;101326.00;;;;4950008;29;20367;-69
2022/05/12 11:15:10;;;;;;;6.23;4.03;;;;;21.20;101324.00;;;;4948821;29;20235;-69
2022/05/12 11:18:04;;;;;;;7.27;3.80;;;;;21.20;101316.00;;;;4950644;29;20702;-68
2022/05/12 11:21:02;;;;;;;7.37;4.10;;;;;21.40;101309.00;;;;4950373;29;20220;-70
2022/05/12 11:24:00;;;;;;;11.77;4.47;;;;;21.40;101320.00;;;;4946602;29;20227;-69
2022/05/12 11:27:15;;;;;;;5.20;4.23;;;;;21.90;101309.00;;;;4946830;29;20305;-69
2022/05/12 11:30:20;;;;;;;7.20;4.63;;;;;22.10;101313.00;;;;4946345;29;20289;-69
2022/05/12 11:33:22;;;;;;;7.87;4.37;;;;;22.40;101309.00;;;;4947123;29;20289;-69
2022/05/12 11:36:10;;;;;;;8.27;5.17;;;;;22.20;101308.00;;;;4946314;29;20249;-69
2022/05/12 11:39:01;;;;;;;7.13;4.90;;;;;22.20;101318.00;;;;4948314;29;20299;-70
2022/05/12 11:41:47;;;;;;;7.47;4.93;;;;;21.80;101326.00;;;;4945586;29;20653;-71
2022/05/12 11:44:39;;;;;;;8.83;4.80;;;;;21.50;101312.00;;;;4948101;29;20243;-70
2022/05/12 11:47:50;;;;;;;9.77;5.30;;;;;21.30;101319.00;;;;4948607;29;20218;-70
2022/05/12 11:50:59;;;;;;;9.00;4.63;;;;;21.10;101312.00;;;;4943499;29;20222;-68
2022/05/12 11:53:57;;;;;;;6.67;4.30;;;;;21.00;101311.00;;;;4944408;29;20208;-68
2022/05/12 11:56:48;;;;;;;6.87;4.60;;;;;21.20;101315.00;;;;4944717;29;20222;-69
2022/05/12 11:59:56;;;;;;;7.10;4.90;;;;;21.70;101323.00;;;;4943064;29;20292;-69
2022/05/12 12:02:48;;;;;;;8.97;5.20;;;;;21.90;101302.00;;;;4943655;29;20222;-69
2022/05/12 12:06:05;;;;;;;7.90;4.77;;;;;22.40;101313.00;;;;4942760;29;20276;-70
2022/05/12 12:08:56;;;;;;;9.67;5.23;;;;;22.90;101311.00;;;;4944821;29;20223;-69
2022/05/12 12:11:45;;;;;;;8.47;5.07;;;;;22.70;101306.00;;;;4948728;29;20226;-69
2022/05/12 12:14:57;;;;;;;8.27;6.03;;;;;22.70;101307.00;;;;4945206;29;20239;-70
2022/05/12 12:17:44;;;;;;;8.03;5.10;;;;;22.90;101306.00;;;;4946186;29;20704;-70
2022/05/12 12:20:47;;;;;;;5.87;4.80;;;;;22.90;101306.00;;;;4946447;29;20208;-70
2022/05/12 12:23:36;;;;;;;9.00;5.40;;;;;22.70;101306.00;;;;4948353;29;20570;-70
2022/05/12 12:26:30;;;;;;;6.53;4.47;;;;;22.80;101299.00;;;;4945011;29;20395;-70
2022/05/12 12:29:19;;;;;;;6.63;4.33;;;;;22.70;101302.00;;;;4944320;29;20221;-69
2022/05/12 12:32:25;;;;;;;7.13;4.93;;;;;22.80;101301.00;;;;4945584;29;20298;-69
2022/05/12 12:35:15;;;;;;;6.87;4.80;;;;;23.00;101301.00;;;;4946666;29;20253;-69
2022/05/12 12:38:02;;;;;;;7.33;4.93;;;;;23.00;101309.00;;;;4947420;29;20296;-67
2022/05/12 12:40:51;;;;;;;10.80;5.77;;;;;23.20;101296.00;;;;4947226;29;20212;-70
2022/05/12 12:43:40;;;;;;;7.40;5.00;;;;;23.40;101303.00;;;;4943037;29;20589;-70
2022/05/12 12:46:29;;;;;;;9.33;5.40;;;;;23.50;101299.00;;;;4941538;29;20232;-69
2022/05/12 12:49:21;;;;;;;10.43;5.60;;;;;23.30;101291.00;;;;4948568;29;20279;-69
2022/05/12 12:52:10;;;;;;;10.37;5.10;;;;;23.40;101284.00;;;;4948464;29;20212;-69
2022/05/12 12:58:05;;;;;;;7.97;5.23;;;;;23.80;101288.00;;;;4945715;29;20340;-70
2022/05/12 13:00:57;;;;;;;9.17;5.17;;;;;23.70;101280.00;;;;4948893;29;20303;-71
2022/05/12 13:03:47;;;;;;;5.87;4.73;;;;;23.60;101278.00;;;;4943076;29;20208;-70
2022/05/12 13:06:37;;;;;;;5.73;4.13;;;;;24.00;101280.00;;;;4941895;29;20340;-70
2022/05/12 13:09:27;;;;;;;7.73;4.13;;;;;23.90;101279.00;;;;4948195;29;20216;-70
2022/05/12 13:12:17;;;;;;;8.77;5.13;;;;;23.80;101273.00;;;;4946803;28;20950;-71
2022/05/12 13:15:16;;;;;;;6.77;4.20;;;;;24.00;101281.00;;;;4945174;29;20240;-71
2022/05/12 13:18:06;;;;;;;9.57;5.07;;;;;24.00;101273.00;;;;4947662;29;20204;-70
2022/05/12 13:21:21;;;;;;;6.20;4.20;;;;;24.10;101268.00;;;;4948147;29;20219;-71
2022/05/12 13:24:13;;;;;;;8.73;4.73;;;;;23.90;101262.00;;;;4948030;29;20238;-70
2022/05/12 13:27:01;;;;;;;6.10;4.10;;;;;23.70;101267.00;;;;4948479;29;20855;-70
2022/05/12 13:29:48;;;;;;;5.57;4.27;;;;;23.40;101263.00;;;;4945929;29;20205;-69
2022/05/12 13:32:39;;;;;;;7.20;4.67;;;;;22.90;101274.00;;;;4947952;29;20216;-70
2022/05/12 13:35:29;;;;;;;8.47;4.87;;;;;23.30;101261.00;;;;4947860;29;20247;-70
2022/05/12 13:38:21;;;;;;;7.63;4.50;;;;;23.10;101259.00;;;;4946900;29;20299;-71
2022/05/12 13:41:12;;;;;;;11.63;5.37;;;;;23.10;101256.00;;;;4948306;29;20601;-69
2022/05/12 13:44:08;;;;;;;12.40;5.57;;;;;23.20;101260.00;;;;4946543;29;20231;-70
2022/05/12 13:46:59;;;;;;;7.97;5.03;;;;;23.50;101270.00;;;;4943964;29;20228;-71
2022/05/12 13:49:50;;;;;;;6.80;4.70;;;;;23.60;101266.00;;;;4944665;29;20332;-70
2022/05/12 13:52:42;;;;;;;7.07;4.60;;;;;23.70;101270.00;;;;4941310;29;20257;-69
2022/05/12 13:55:31;;;;;;;9.73;5.67;;;;;23.70;101254.00;;;;4947861;29;20232;-71
2022/05/12 13:58:18;;;;;;;6.30;4.23;;;;;23.90;101261.00;;;;4947814;29;20591;-70
2022/05/12 14:01:05;;;;;;;12.37;4.70;;;;;23.80;101253.00;;;;4947567;29;20666;-72
2022/05/12 14:04:04;;;;;;;5.97;4.13;;;;;24.20;101248.00;;;;4947668;29;20300;-69
2022/05/12 14:06:55;;;;;;;6.87;4.37;;;;;24.30;101244.00;;;;4943163;29;20248;-67
2022/05/12 14:09:53;;;;;;;7.87;4.70;;;;;24.40;101257.00;;;;4941844;29;20225;-69
2022/05/12 14:19:15;;;;;;;6.20;4.27;;;;;23.70;101239.00;;;;4947616;29;20220;-70
2022/05/12 14:22:08;;;;;;;10.20;7.20;;;;;23.60;101239.00;;;;4947584;29;20213;-70
2022/05/12 14:24:54;;;;;;;6.97;4.73;;;;;23.70;101237.00;;;;4941025;29;20232;-70